createdAt,value
2018-04-17T00:00:31.680Z,21.77
2018-04-17T00:03:00.675Z,18.90
2018-04-17T00:05:29.143Z,23.50
2018-04-17T00:07:59.162Z,22.90
2018-04-17T00:10:27.543Z,24.00
2018-04-17T00:12:57.208Z,30.33
2018-04-17T00:15:25.719Z,32.70
2018-04-17T00:17:54.434Z,31.73
2018-04-17T00:20:23.422Z,23.97
2018-04-17T00:22:53.101Z,21.97
2018-04-17T00:25:22.636Z,24.40
2018-04-17T00:27:51.533Z,20.87
2018-04-17T00:30:20.346Z,24.77
2018-04-17T00:32:50.779Z,20.67
2018-04-17T00:35:19.149Z,24.00
2018-04-17T00:37:48.901Z,19.80
2018-04-17T00:40:17.338Z,20.93
2018-04-17T00:42:45.743Z,21.47
2018-04-17T00:45:14.300Z,18.20
2018-04-17T00:47:43.437Z,20.57
2018-04-17T00:50:12.613Z,19.03
2018-04-17T00:52:41.831Z,21.27
2018-04-17T00:55:10.250Z,17.77
2018-04-17T00:57:39.451Z,18.33
2018-04-17T01:00:07.798Z,16.37
2018-04-17T01:02:37.760Z,19.97
2018-04-17T01:05:06.618Z,20.53
2018-04-17T01:07:35.582Z,18.47
2018-04-17T01:10:04.963Z,17.53
2018-04-17T01:12:34.202Z,19.47
2018-04-17T01:15:02.594Z,18.43
2018-04-17T01:17:32.396Z,18.07
2018-04-17T01:20:02.623Z,20.77
2018-04-17T01:22:31.591Z,22.17
2018-04-17T01:25:00.339Z,18.47
2018-04-17T01:27:29.062Z,18.73
2018-04-17T01:29:58.664Z,19.47
2018-04-17T01:32:27.039Z,18.80
2018-04-17T01:34:56.299Z,21.43
2018-04-17T01:37:25.598Z,22.20
2018-04-17T01:39:53.964Z,20.10
2018-04-17T01:42:23.118Z,23.87
2018-04-17T01:44:51.504Z,20.57
2018-04-17T01:47:21.329Z,19.83
2018-04-17T01:49:49.744Z,20.57
2018-04-17T01:52:18.897Z,18.07
2018-04-17T01:54:49.085Z,16.97
2018-04-17T01:57:18.383Z,22.43
2018-04-17T01:59:48.492Z,20.07
2018-04-17T02:02:16.890Z,18.07
2018-04-17T02:04:45.509Z,18.77
2018-04-17T02:07:15.406Z,16.70
2018-04-17T02:09:44.694Z,20.47
2018-04-17T02:12:14.543Z,16.33
2018-04-17T02:14:42.918Z,16.80
2018-04-17T02:17:13.558Z,22.03
2018-04-17T02:19:42.911Z,17.10
2018-04-17T02:22:12.098Z,16.87
2018-04-17T02:24:42.374Z,18.67
2018-04-17T02:27:11.136Z,19.07
2018-04-17T02:29:42.265Z,16.57
2018-04-17T02:32:12.920Z,19.60
2018-04-17T02:34:42.109Z,16.57
2018-04-17T02:37:12.416Z,13.70
2018-04-17T02:39:42.656Z,19.30
2018-04-17T02:42:11.965Z,15.07
2018-04-17T02:44:41.681Z,16.37
2018-04-17T02:47:11.681Z,18.00
2018-04-17T02:49:41.093Z,18.83
2018-04-17T02:52:10.382Z,16.43
2018-04-17T02:54:39.681Z,17.67
2018-04-17T02:57:08.801Z,17.60
2018-04-17T02:59:38.308Z,18.57
2018-04-17T03:02:06.689Z,16.30
2018-04-17T03:04:37.185Z,14.17
2018-04-17T03:07:06.540Z,23.47
2018-04-17T03:09:35.712Z,17.40
2018-04-17T03:12:04.158Z,16.93
2018-04-17T03:14:34.343Z,15.70
2018-04-17T03:17:03.998Z,17.53
2018-04-17T03:19:32.425Z,18.50
2018-04-17T03:22:01.652Z,17.23
2018-04-17T03:24:30.026Z,17.47
2018-04-17T03:26:59.843Z,21.00
2018-04-17T03:29:29.065Z,18.10
2018-04-17T03:31:59.171Z,17.13
2018-04-17T03:34:29.149Z,19.07
2018-04-17T03:36:58.444Z,16.27
2018-04-17T03:39:28.594Z,18.30
2018-04-17T03:41:59.608Z,17.30
2018-04-17T03:44:28.853Z,19.60
2018-04-17T03:46:57.628Z,19.07
2018-04-17T03:49:26.613Z,16.57
2018-04-17T03:51:55.383Z,18.50
2018-04-17T03:54:23.829Z,21.13
2018-04-17T03:56:53.685Z,17.73
2018-04-17T03:59:22.872Z,21.30
2018-04-17T04:01:51.256Z,22.63
2018-04-17T04:04:19.656Z,15.87
2018-04-17T04:06:48.664Z,16.10
2018-04-17T04:09:17.863Z,17.77
2018-04-17T04:11:47.866Z,16.77
2018-04-17T04:14:16.302Z,19.30
2018-04-17T04:16:57.165Z,16.10
2018-04-17T04:19:38.843Z,19.70
2018-04-17T04:22:19.041Z,17.80
2018-04-17T04:25:00.257Z,20.43
2018-04-17T04:27:30.703Z,17.50
2018-04-17T04:29:59.054Z,18.17
2018-04-17T04:32:29.625Z,17.33
2018-04-17T04:34:58.577Z,18.77
2018-04-17T04:37:27.675Z,18.70
2018-04-17T04:39:56.959Z,18.53
2018-04-17T04:42:25.390Z,20.20
2018-04-17T04:44:54.158Z,22.43
2018-04-17T04:47:23.402Z,18.30
2018-04-17T04:49:52.933Z,19.90
2018-04-17T04:52:21.836Z,15.70
2018-04-17T04:54:50.249Z,18.70
2018-04-17T04:57:19.357Z,21.10
2018-04-17T04:59:48.029Z,19.77
2018-04-17T05:02:18.588Z,25.03
2018-04-17T05:04:48.042Z,19.17
2018-04-17T05:07:17.273Z,18.50
2018-04-17T05:09:46.645Z,20.70
2018-04-17T05:12:15.988Z,19.17
2018-04-17T05:14:45.648Z,18.80
2018-04-17T05:17:14.024Z,18.17
2018-04-17T05:19:42.617Z,18.80
2018-04-17T05:22:10.959Z,23.67
2018-04-17T05:24:39.618Z,24.10
2018-04-17T05:27:08.471Z,20.20
2018-04-17T05:29:37.139Z,18.30
2018-04-17T05:32:05.530Z,19.73
2018-04-17T05:34:34.844Z,22.10
2018-04-17T05:37:03.219Z,21.40
2018-04-17T05:39:32.324Z,21.57
2018-04-17T05:42:02.878Z,23.80
2018-04-17T05:44:33.038Z,23.50
2018-04-17T05:47:01.442Z,22.30
2018-04-17T05:49:30.730Z,31.10
2018-04-17T05:51:59.669Z,29.77
2018-04-17T05:54:28.555Z,23.40
2018-04-17T05:56:57.893Z,20.73
2018-04-17T05:59:27.266Z,21.57
2018-04-17T06:01:57.494Z,18.00
2018-04-17T06:04:25.923Z,21.40
2018-04-17T06:06:55.205Z,21.53
2018-04-17T06:09:24.223Z,22.10
2018-04-17T06:11:53.354Z,19.50
2018-04-17T06:14:21.977Z,19.30
2018-04-17T06:16:50.382Z,21.17
2018-04-17T06:19:19.768Z,20.40
2018-04-17T06:21:49.203Z,24.80
2018-04-17T06:24:17.606Z,20.90
2018-04-17T06:26:46.430Z,23.13
2018-04-17T06:29:15.680Z,21.87
2018-04-17T06:31:44.869Z,17.87
2018-04-17T06:34:13.325Z,20.00
2018-04-17T06:36:42.931Z,23.30
2018-04-17T06:39:11.871Z,23.37
2018-04-17T06:41:42.514Z,20.40
2018-04-17T06:44:12.055Z,21.33
2018-04-17T06:46:41.486Z,20.53
2018-04-17T06:49:12.033Z,25.23
2018-04-17T06:51:41.222Z,22.73
2018-04-17T06:54:11.762Z,19.87
2018-04-17T06:56:42.523Z,24.80
2018-04-17T06:59:11.676Z,22.47
2018-04-17T07:01:40.290Z,17.87
2018-04-17T07:04:08.789Z,20.93
2018-04-17T07:06:37.232Z,25.13
2018-04-17T07:09:06.509Z,20.47
2018-04-17T07:11:34.886Z,21.30
2018-04-17T07:14:04.029Z,23.07
2018-04-17T07:16:33.316Z,22.57
2018-04-17T07:19:02.138Z,21.90
2018-04-17T07:21:30.458Z,23.13
2018-04-17T07:24:00.220Z,22.60
2018-04-17T07:26:30.849Z,19.90
2018-04-17T07:29:00.726Z,21.60
2018-04-17T07:31:29.121Z,19.97
2018-04-17T07:33:58.381Z,20.23
2018-04-17T07:36:27.984Z,22.00
2018-04-17T07:38:57.135Z,21.40
2018-04-17T07:41:25.556Z,21.30
2018-04-17T07:43:55.537Z,23.07
2018-04-17T07:46:25.625Z,17.50
2018-04-17T07:49:10.090Z,18.70
2018-04-17T07:51:39.415Z,23.07
2018-04-17T07:54:08.679Z,23.03
2018-04-17T07:56:38.294Z,17.80
2018-04-17T07:59:07.569Z,18.80
2018-04-17T08:01:36.133Z,20.20
2018-04-17T08:04:04.533Z,19.87
2018-04-17T08:06:32.985Z,20.30
2018-04-17T08:09:02.679Z,21.10
2018-04-17T08:11:31.294Z,18.87
2018-04-17T08:14:00.725Z,22.97
2018-04-17T08:16:29.567Z,18.87
2018-04-17T08:18:59.885Z,21.97
2018-04-17T08:21:29.802Z,23.37
2018-04-17T08:23:58.769Z,20.77
2018-04-17T08:26:28.096Z,22.53
2018-04-17T08:28:57.368Z,20.37
2018-04-17T08:31:25.801Z,22.17
2018-04-17T08:33:54.966Z,20.07
2018-04-17T08:36:23.415Z,21.97
2018-04-17T08:38:52.433Z,19.57
2018-04-17T08:41:21.059Z,22.50
2018-04-17T08:43:51.352Z,22.53
2018-04-17T08:46:20.379Z,19.07
2018-04-17T08:48:48.819Z,21.63
2018-04-17T08:51:18.077Z,21.83
2018-04-17T08:53:47.443Z,21.17
2018-04-17T08:56:16.063Z,23.87
2018-04-17T08:58:44.449Z,19.00
2018-04-17T09:01:14.252Z,19.17
2018-04-17T09:03:43.252Z,22.73
2018-04-17T09:06:11.831Z,21.57
2018-04-17T09:08:40.199Z,20.40
2018-04-17T09:11:09.484Z,21.37
2018-04-17T09:13:37.999Z,19.07
2018-04-17T09:16:08.295Z,21.13
2018-04-17T09:18:37.311Z,18.87
2018-04-17T09:21:05.690Z,22.33
2018-04-17T09:23:35.604Z,22.70
2018-04-17T09:26:05.940Z,24.33
2018-04-17T09:28:34.290Z,21.17
2018-04-17T09:31:03.725Z,21.70
2018-04-17T09:33:32.071Z,23.03
2018-04-17T09:36:02.236Z,17.57
2018-04-17T09:38:31.493Z,20.13
2018-04-17T09:41:00.012Z,21.37
2018-04-17T09:43:28.397Z,17.17
2018-04-17T09:45:57.684Z,17.00
2018-04-17T09:48:26.558Z,20.20
2018-04-17T09:50:56.275Z,16.80
2018-04-17T09:53:26.797Z,16.47
2018-04-17T09:55:56.075Z,17.40
2018-04-17T09:58:24.555Z,17.37
2018-04-17T10:00:59.357Z,17.17
2018-04-17T10:03:27.874Z,15.33
2018-04-17T10:05:56.264Z,16.10
2018-04-17T10:08:27.138Z,17.40
2018-04-17T10:10:56.380Z,17.07
2018-04-17T10:13:25.637Z,14.67
2018-04-17T10:15:54.045Z,16.80
2018-04-17T10:18:24.231Z,18.20
2018-04-17T10:20:53.775Z,14.60
2018-04-17T10:23:23.766Z,16.33
2018-04-17T10:25:52.185Z,15.30
2018-04-17T10:28:21.332Z,12.50
2018-04-17T10:30:50.031Z,16.00
2018-04-17T10:33:18.597Z,15.67
2018-04-17T10:35:47.017Z,13.83
2018-04-17T10:38:17.027Z,13.60
2018-04-17T10:40:46.616Z,14.50
2018-04-17T10:43:14.962Z,13.03
2018-04-17T10:45:44.491Z,13.97
2018-04-17T10:48:13.303Z,14.13
2018-04-17T10:50:42.067Z,12.17
2018-04-17T10:53:10.502Z,12.87
2018-04-17T10:55:38.957Z,13.63
2018-04-17T10:58:07.938Z,13.60
2018-04-17T11:00:37.105Z,10.77
2018-04-17T11:03:05.533Z,9.63
2018-04-17T11:05:35.175Z,7.73
2018-04-17T11:08:04.362Z,11.13
2018-04-17T11:10:32.858Z,8.23
2018-04-17T11:13:01.415Z,7.30
2018-04-17T11:15:30.229Z,4.70
2018-04-17T11:18:00.191Z,5.10
2018-04-17T11:20:29.719Z,6.07
2018-04-17T11:22:58.174Z,5.90
2018-04-17T11:25:26.574Z,3.60
2018-04-17T11:27:54.906Z,4.73
2018-04-17T11:30:24.219Z,7.83
2018-04-17T11:32:54.301Z,5.53
2018-04-17T11:35:23.429Z,5.13
2018-04-17T11:37:51.818Z,7.40
2018-04-17T11:40:21.107Z,6.73
2018-04-17T11:42:49.531Z,13.00
2018-04-17T11:45:19.581Z,4.77
2018-04-17T11:47:48.897Z,5.37
2018-04-17T11:50:18.093Z,4.83
2018-04-17T11:52:47.999Z,5.50
2018-04-17T11:55:17.715Z,6.37
2018-04-17T11:57:47.083Z,7.33
2018-04-17T12:00:16.341Z,5.63
2018-04-17T12:02:44.667Z,6.97
2018-04-17T12:05:13.599Z,6.37
2018-04-17T12:07:41.921Z,5.90
2018-04-17T12:10:11.205Z,6.50
2018-04-17T12:12:40.405Z,8.03
2018-04-17T12:15:08.861Z,6.63
2018-04-17T12:17:37.628Z,7.90
2018-04-17T12:20:08.404Z,8.27
2018-04-17T12:22:37.935Z,8.13
2018-04-17T12:25:07.160Z,5.23
2018-04-17T12:27:36.450Z,8.10
2018-04-17T12:30:04.809Z,8.53
2018-04-17T12:32:33.411Z,7.37
2018-04-17T12:35:02.497Z,6.43
2018-04-17T12:37:31.147Z,8.03
2018-04-17T12:39:59.760Z,9.30
2018-04-17T12:42:28.560Z,12.67
2018-04-17T12:44:58.445Z,9.70
2018-04-17T12:47:26.806Z,7.97
2018-04-17T12:49:55.712Z,9.33
2018-04-17T12:52:24.455Z,10.57
2018-04-17T12:54:54.153Z,12.90
2018-04-17T12:57:23.308Z,11.97
2018-04-17T12:59:52.675Z,10.60
2018-04-17T13:02:22.471Z,12.53
2018-04-17T13:04:52.743Z,9.80
2018-04-17T13:07:25.864Z,10.30
2018-04-17T13:09:54.672Z,10.57
2018-04-17T13:12:23.882Z,8.13
2018-04-17T13:14:53.110Z,7.60
2018-04-17T13:17:21.493Z,8.40
2018-04-17T13:19:50.837Z,9.20
2018-04-17T13:22:19.226Z,13.03
2018-04-17T13:24:48.463Z,10.53
2018-04-17T13:27:18.310Z,7.97
2018-04-17T13:29:47.544Z,9.33
2018-04-17T13:32:15.940Z,8.67
2018-04-17T13:34:45.624Z,9.90
2018-04-17T13:37:15.551Z,7.93
2018-04-17T13:39:44.153Z,9.53
2018-04-17T13:42:12.593Z,8.43
2018-04-17T13:44:41.223Z,10.80
2018-04-17T13:47:09.597Z,7.23
2018-04-17T13:49:39.005Z,8.17
2018-04-17T13:52:08.333Z,8.43
2018-04-17T13:54:36.832Z,7.90
2018-04-17T13:57:05.294Z,8.57
2018-04-17T13:59:33.637Z,11.70
2018-04-17T14:02:02.698Z,7.53
2018-04-17T14:04:32.069Z,11.17
2018-04-17T14:07:03.922Z,8.10
2018-04-17T14:09:34.111Z,9.27
2018-04-17T14:12:03.222Z,12.63
2018-04-17T14:14:32.550Z,10.33
2018-04-17T14:17:02.489Z,9.33
2018-04-17T14:19:32.616Z,14.70
2018-04-17T14:22:01.911Z,9.20
2018-04-17T14:24:30.481Z,10.77
2018-04-17T14:26:58.979Z,12.50
2018-04-17T14:29:28.231Z,13.10
2018-04-17T14:31:56.650Z,13.13
2018-04-17T14:34:26.335Z,10.00
2018-04-17T14:36:54.936Z,13.70
2018-04-17T14:39:23.736Z,9.03
2018-04-17T14:41:53.141Z,13.27
2018-04-17T14:44:22.472Z,9.83
2018-04-17T14:46:51.699Z,13.90
2018-04-17T14:49:20.871Z,8.90
2018-04-17T14:51:49.266Z,8.90
2018-04-17T14:54:18.594Z,9.67
2018-04-17T14:56:48.490Z,10.57
2018-04-17T14:59:17.525Z,9.67
2018-04-17T15:01:46.818Z,11.60
2018-04-17T15:04:17.240Z,12.60
2018-04-17T15:06:45.684Z,8.00
2018-04-17T15:09:15.546Z,6.73
2018-04-17T15:11:46.370Z,10.20
2018-04-17T15:14:15.647Z,9.57
2018-04-17T15:16:43.980Z,9.23
2018-04-17T15:19:14.306Z,13.43
2018-04-17T15:21:43.065Z,7.17
2018-04-17T15:24:13.506Z,10.73
2018-04-17T15:26:43.904Z,9.03
2018-04-17T15:29:14.243Z,10.53
2018-04-17T15:31:43.421Z,10.50
2018-04-17T15:34:12.869Z,10.77
2018-04-17T15:36:41.346Z,10.83
2018-04-17T15:39:10.830Z,10.80
2018-04-17T15:41:40.258Z,9.10
2018-04-17T15:44:09.360Z,10.43
2018-04-17T15:46:38.621Z,7.90
2018-04-17T15:49:08.590Z,9.73
2018-04-17T15:51:37.855Z,7.57
2018-04-17T15:54:07.479Z,6.87
2018-04-17T15:56:37.764Z,8.23
2018-04-17T15:59:07.031Z,6.83
2018-04-17T16:01:35.417Z,8.73
2018-04-17T16:04:04.741Z,8.33
2018-04-17T16:06:33.210Z,8.17
2018-04-17T16:09:01.837Z,7.83
2018-04-17T16:11:30.189Z,8.23
2018-04-17T16:13:58.589Z,7.13
2018-04-17T16:16:27.112Z,7.43
2018-04-17T16:18:56.072Z,7.93
2018-04-17T16:21:25.255Z,6.73
2018-04-17T16:23:55.592Z,7.33
2018-04-17T16:26:24.770Z,4.63
2018-04-17T16:28:53.548Z,6.37
2018-04-17T16:31:24.258Z,6.93
2018-04-17T16:33:53.539Z,7.90
2018-04-17T16:36:22.455Z,5.93
2018-04-17T16:38:51.761Z,9.77
2018-04-17T16:41:20.439Z,5.80
2018-04-17T16:43:48.933Z,4.00
2018-04-17T16:46:18.071Z,4.70
2018-04-17T16:48:47.248Z,6.17
2018-04-17T16:51:16.425Z,4.73
2018-04-17T16:53:45.561Z,6.47
2018-04-17T16:56:13.908Z,6.50
2018-04-17T16:58:43.604Z,4.90
2018-04-17T17:01:12.985Z,8.47
2018-04-17T17:03:41.325Z,6.00
2018-04-17T17:06:12.226Z,4.27
2018-04-17T17:08:48.277Z,6.00
2018-04-17T17:11:19.437Z,6.57
2018-04-17T17:13:48.654Z,4.67
2018-04-17T17:16:17.053Z,6.27
2018-04-17T17:18:48.804Z,6.07
2018-04-17T17:21:19.024Z,5.93
2018-04-17T17:23:50.077Z,6.90
2018-04-17T17:26:21.357Z,5.23
2018-04-17T17:28:51.673Z,5.23
2018-04-17T17:31:20.861Z,9.20
2018-04-17T17:33:49.999Z,7.83
2018-04-17T17:36:19.929Z,3.30
2018-04-17T17:38:52.298Z,3.40
2018-04-17T17:41:20.701Z,4.00
2018-04-17T17:43:50.709Z,7.20
2018-04-17T17:46:19.083Z,5.70
2018-04-17T17:48:48.170Z,9.00
2018-04-17T17:51:17.370Z,4.50
2018-04-17T17:53:46.913Z,4.97
2018-04-17T17:56:15.308Z,6.50
2018-04-17T17:58:45.785Z,10.07
2018-04-17T18:01:15.249Z,7.80
2018-04-17T18:03:44.527Z,7.20
2018-04-17T18:06:15.097Z,5.70
2018-04-17T18:08:45.059Z,6.23
2018-04-17T18:11:17.489Z,4.50
2018-04-17T18:13:46.379Z,3.90
2018-04-17T18:16:16.940Z,5.40
2018-04-17T18:18:45.284Z,5.97
2018-04-17T18:21:15.734Z,7.70
2018-04-17T18:23:44.796Z,3.40
2018-04-17T18:26:13.620Z,4.47
2018-04-17T18:28:43.263Z,5.33
2018-04-17T18:31:12.610Z,6.47
2018-04-17T18:33:41.212Z,4.90
2018-04-17T18:36:10.080Z,6.00
2018-04-17T18:38:39.299Z,5.17
2018-04-17T18:41:08.210Z,5.37
2018-04-17T18:43:39.257Z,4.50
2018-04-17T18:46:09.066Z,5.13
2018-04-17T18:48:39.151Z,6.27
2018-04-17T18:51:09.339Z,4.77
2018-04-17T18:53:46.518Z,3.97
2018-04-17T18:56:16.686Z,5.93
2018-04-17T18:58:45.988Z,7.53
2018-04-17T19:01:14.394Z,7.47
2018-04-17T19:03:44.214Z,8.17
2018-04-17T19:06:12.782Z,9.43
2018-04-17T19:08:41.903Z,5.90
2018-04-17T19:11:10.288Z,6.80
2018-04-17T19:13:40.532Z,6.00
2018-04-17T19:16:08.915Z,6.10
2018-04-17T19:18:38.389Z,7.07
2018-04-17T19:21:07.196Z,5.07
2018-04-17T19:23:36.711Z,7.20
2018-04-17T19:26:06.437Z,6.77
2018-04-17T19:28:34.834Z,5.03
2018-04-17T19:31:05.390Z,6.50
2018-04-17T19:33:35.775Z,6.10
2018-04-17T19:36:04.113Z,7.03
2018-04-17T19:38:33.221Z,7.30
2018-04-17T19:41:01.825Z,4.07
2018-04-17T19:43:32.312Z,7.33
2018-04-17T19:46:00.641Z,3.90
2018-04-17T19:48:29.041Z,6.10
2018-04-17T19:50:58.121Z,5.23
2018-04-17T19:53:27.334Z,7.63
2018-04-17T19:55:57.238Z,7.23
2018-04-17T19:58:25.634Z,7.97
2018-04-17T20:00:54.892Z,7.07
2018-04-17T20:03:23.257Z,8.07
2018-04-17T20:05:51.660Z,4.87
2018-04-17T20:08:20.760Z,5.67
2018-04-17T20:10:49.858Z,6.50
2018-04-17T20:13:18.558Z,6.30
2018-04-17T20:15:46.939Z,5.67
2018-04-17T20:18:16.769Z,5.73
2018-04-17T20:20:45.103Z,7.37
2018-04-17T20:23:14.387Z,7.20
2018-04-17T20:25:43.468Z,6.43
2018-04-17T20:28:14.750Z,5.67
2018-04-17T20:30:43.564Z,10.70
2018-04-17T20:33:12.399Z,5.73
2018-04-17T20:35:40.857Z,9.27
2018-04-17T20:38:09.272Z,8.17
2018-04-17T20:40:38.033Z,4.63
2018-04-17T20:43:06.948Z,5.87
2018-04-17T20:45:36.337Z,8.23
2018-04-17T20:48:05.775Z,5.60
2018-04-17T20:50:34.213Z,5.17
2018-04-17T20:53:03.506Z,6.40
2018-04-17T20:55:32.737Z,7.30
2018-04-17T20:58:02.436Z,5.50
2018-04-17T21:00:31.677Z,9.37
2018-04-17T21:03:00.803Z,4.73
2018-04-17T21:05:29.518Z,4.03
2018-04-17T21:07:58.247Z,7.77
2018-04-17T21:10:26.742Z,5.83
2018-04-17T21:12:55.451Z,11.20
2018-04-17T21:15:23.805Z,6.47
2018-04-17T21:17:52.202Z,10.33
2018-04-17T21:20:22.303Z,5.20
2018-04-17T21:22:50.670Z,6.40
2018-04-17T21:25:20.466Z,6.13
2018-04-17T21:27:48.905Z,6.53
2018-04-17T21:30:18.152Z,6.87
2018-04-17T21:32:46.548Z,5.93
2018-04-17T21:35:15.370Z,7.70
2018-04-17T21:37:45.374Z,9.13
2018-04-17T21:40:13.748Z,7.63
2018-04-17T21:42:43.601Z,7.73
2018-04-17T21:45:12.208Z,8.43
2018-04-17T21:47:42.208Z,7.33
2018-04-17T21:50:10.696Z,7.97
2018-04-17T21:52:40.742Z,8.17
2018-04-17T21:55:09.120Z,7.50
2018-04-17T21:57:38.169Z,5.53
2018-04-17T22:00:07.085Z,7.07
2018-04-17T22:02:35.806Z,7.47
2018-04-17T22:05:05.330Z,7.67
2018-04-17T22:07:33.733Z,5.47
2018-04-17T22:10:03.859Z,6.90
2018-04-17T22:12:34.805Z,6.13
2018-04-17T22:15:03.227Z,6.63
2018-04-17T22:17:31.649Z,5.20
2018-04-17T22:20:01.522Z,8.07
2018-04-17T22:22:31.201Z,7.20
2018-04-17T22:24:59.574Z,9.07
2018-04-17T22:27:27.989Z,5.23
2018-04-17T22:29:58.014Z,6.03
2018-04-17T22:32:27.522Z,7.23
2018-04-17T22:34:57.261Z,5.33
2018-04-17T22:37:27.705Z,6.17
2018-04-17T22:39:56.831Z,7.70
2018-04-17T22:42:27.848Z,6.30
2018-04-17T22:44:57.752Z,7.10
2018-04-17T22:47:26.724Z,4.97
2018-04-17T22:49:56.274Z,5.27
2018-04-17T22:52:26.015Z,4.73
2018-04-17T22:54:54.354Z,6.77
2018-04-17T22:57:22.961Z,6.43
2018-04-17T22:59:52.514Z,7.87
2018-04-17T23:02:21.798Z,6.40
2018-04-17T23:04:50.846Z,8.00
2018-04-17T23:07:20.741Z,5.10
2018-04-17T23:09:50.125Z,8.10
2018-04-17T23:12:18.767Z,6.40
2018-04-17T23:14:49.606Z,7.23
2018-04-17T23:17:18.040Z,8.00
2018-04-17T23:19:48.227Z,7.60
2018-04-17T23:22:16.672Z,6.00
2018-04-17T23:24:45.105Z,8.80
2018-04-17T23:27:14.405Z,7.90
2018-04-17T23:29:44.203Z,8.40
2018-04-17T23:32:13.381Z,9.70
2018-04-17T23:34:42.620Z,7.70
2018-04-17T23:37:11.874Z,4.67
2018-04-17T23:39:40.559Z,6.93
2018-04-17T23:42:09.701Z,6.27
2018-04-17T23:44:38.103Z,7.37
2018-04-17T23:47:07.346Z,5.80
2018-04-17T23:49:37.517Z,6.50
2018-04-17T23:52:05.844Z,6.93
2018-04-17T23:54:34.215Z,6.47
2018-04-17T23:57:04.209Z,9.03
2018-04-17T23:59:33.617Z,7.93
